Time;durP1;ratioP1;P1;durP2;ratioP2;P2;SDS_P1;SDS_P2;PMS_P1;PMS_P2;Temp;Humidity;BMP_temperature;BMP_pressure;BME280_temperature;BME280_humidity;BME280_pressure;Samples;Min_cycle;Max_cycle;Signal;HPM_P1;HPM_P2
2023/03/31 00:00:53;;;;;;;15.87;3.20;;;11.00;99.90;;;;;;4926067;29;20239;-60
2023/03/31 00:03:22;;;;;;;18.50;3.50;;;11.00;99.90;;;;;;4916807;29;20244;-60
2023/03/31 00:05:56;;;;;;;14.97;3.40;;;11.10;99.90;;;;;;4936010;29;20238;-59
2023/03/31 00:08:28;;;;;;;14.83;2.80;;;11.10;99.90;;;;;;4925045;29;20235;-58
2023/03/31 00:10:59;;;;;;;16.67;3.47;;;11.10;99.90;;;;;;4924066;29;20298;-59
2023/03/31 00:13:28;;;;;;;14.37;2.77;;;11.10;99.90;;;;;;4916770;29;20700;-59
2023/03/31 00:15:58;;;;;;;10.73;3.07;;;11.10;99.90;;;;;;4919818;29;20286;-59
2023/03/31 00:18:28;;;;;;;15.03;3.67;;;11.10;99.90;;;;;;4935434;29;20243;-59
2023/03/31 00:21:05;;;;;;;14.20;2.93;;;11.00;99.90;;;;;;4925438;29;20235;-58
2023/03/31 00:23:34;;;;;;;16.10;3.47;;;11.00;99.90;;;;;;4932107;29;20241;-60
2023/03/31 00:26:02;;;;;;;13.67;3.60;;;11.00;99.90;;;;;;4935781;29;20230;-59
2023/03/31 00:28:31;;;;;;;12.83;3.23;;;11.00;99.90;;;;;;4935527;29;20765;-59
2023/03/31 00:31:03;;;;;;;15.17;3.40;;;11.00;99.90;;;;;;4924152;29;20242;-59
2023/03/31 00:33:32;;;;;;;16.30;3.07;;;11.00;99.90;;;;;;4915117;29;20244;-59
2023/03/31 00:36:04;;;;;;;11.93;2.87;;;11.00;99.90;;;;;;4919656;29;20560;-59
2023/03/31 00:38:34;;;;;;;14.50;3.00;;;10.90;99.90;;;;;;4926678;29;20231;-59
2023/03/31 00:41:03;;;;;;;15.47;3.43;;;10.90;99.90;;;;;;4935922;29;20699;-59
2023/03/31 00:43:33;;;;;;;14.97;3.43;;;10.90;99.90;;;;;;4933968;29;20234;-59
2023/03/31 00:46:14;;;;;;;16.60;3.43;;;10.90;99.90;;;;;;4935173;29;20302;-59
2023/03/31 00:48:49;;;;;;;15.20;2.80;;;10.90;99.90;;;;;;4935053;29;20292;-59
2023/03/31 00:51:20;;;;;;;16.17;3.60;;;10.90;99.90;;;;;;4928611;29;20289;-59
2023/03/31 00:53:54;;;;;;;15.90;3.43;;;10.90;99.90;;;;;;4916106;29;20238;-60
2023/03/31 00:56:22;;;;;;;16.90;3.50;;;10.90;99.90;;;;;;4920432;29;20240;-59
2023/03/31 00:58:52;;;;;;;11.07;2.67;;;10.90;99.90;;;;;;4935101;29;20239;-59
2023/03/31 01:01:24;;;;;;;14.70;2.97;;;10.90;99.90;;;;;;4926993;29;20727;-59
2023/03/31 01:03:53;;;;;;;15.37;2.80;;;10.90;99.90;;;;;;4935212;29;20222;-59
2023/03/31 01:06:24;;;;;;;16.83;3.10;;;10.90;99.90;;;;;;4931993;29;20240;-59
2023/03/31 01:08:52;;;;;;;15.70;3.33;;;10.90;99.90;;;;;;4932202;29;20325;-59
2023/03/31 01:11:26;;;;;;;14.57;3.00;;;10.90;99.90;;;;;;4918643;29;20239;-59
2023/03/31 01:13:56;;;;;;;16.60;3.60;;;10.90;99.90;;;;;;4921661;29;20598;-59
2023/03/31 01:16:24;;;;;;;17.13;3.83;;;10.90;99.90;;;;;;4939019;29;20649;-58
2023/03/31 01:18:56;;;;;;;10.53;2.83;;;10.80;99.90;;;;;;4936891;29;20241;-59
2023/03/31 01:21:52;;;;;;;19.60;3.83;;;10.80;99.90;;;;;;4927737;29;20298;-58
2023/03/31 01:25:02;;;;;;;14.47;3.00;;;10.90;99.90;;;;;;4925034;29;20709;-59
2023/03/31 01:27:52;;;;;;;14.20;3.57;;;10.80;99.90;;;;;;4927530;29;20234;-59
2023/03/31 01:30:48;;;;;;;12.27;2.83;;;10.80;99.90;;;;;;4929972;29;20253;-59
2023/03/31 01:33:30;;;;;;;17.10;3.17;;;10.80;99.90;;;;;;4919316;29;20242;-59
2023/03/31 01:36:45;;;;;;;18.93;3.63;;;10.80;99.90;;;;;;4919525;29;20238;-59
2023/03/31 01:40:08;;;;;;;17.00;3.60;;;10.90;99.90;;;;;;4914689;29;20603;-59
2023/03/31 01:42:39;;;;;;;16.23;3.40;;;10.80;99.90;;;;;;4917942;29;20718;-59
2023/03/31 01:45:19;;;;;;;15.57;4.00;;;10.90;99.90;;;;;;4930295;29;20235;-59
2023/03/31 01:47:53;;;;;;;14.20;3.80;;;10.80;99.90;;;;;;4938088;29;20230;-59
2023/03/31 01:50:27;;;;;;;13.53;3.70;;;11.00;99.90;;;;;;4930280;29;20691;-59
2023/03/31 01:53:01;;;;;;;12.50;3.50;;;10.90;99.90;;;;;;4919914;29;20230;-59
2023/03/31 01:55:36;;;;;;;13.53;3.13;;;10.90;99.90;;;;;;4932499;29;20723;-59
2023/03/31 01:58:11;;;;;;;11.07;3.13;;;10.80;99.90;;;;;;4938113;29;20229;-59
2023/03/31 02:00:45;;;;;;;16.73;4.03;;;10.80;99.90;;;;;;4935677;29;20778;-59
2023/03/31 02:03:20;;;;;;;13.83;4.17;;;10.80;99.90;;;;;;4919257;29;20314;-60
2023/03/31 02:05:53;;;;;;;12.07;3.77;;;10.80;99.90;;;;;;4935134;29;20636;-59
2023/03/31 02:08:25;;;;;;;15.13;3.83;;;10.80;99.90;;;;;;4930660;29;20241;-59
2023/03/31 02:10:57;;;;;;;16.27;3.97;;;10.80;99.90;;;;;;4936641;29;20226;-59
2023/03/31 02:13:27;;;;;;;12.57;3.83;;;10.90;99.90;;;;;;4948418;29;20704;-59
2023/03/31 02:16:01;;;;;;;16.73;4.20;;;10.80;99.90;;;;;;4935259;29;20710;-59
2023/03/31 02:18:37;;;;;;;14.43;3.60;;;10.90;99.90;;;;;;4937496;29;20230;-59
2023/03/31 02:21:07;;;;;;;18.07;3.93;;;10.80;99.90;;;;;;4926357;29;20231;-59
2023/03/31 02:23:38;;;;;;;13.33;3.30;;;10.80;99.90;;;;;;4918436;29;20235;-59
2023/03/31 02:26:12;;;;;;;15.27;3.43;;;10.80;99.90;;;;;;4934931;29;20600;-59
2023/03/31 02:28:40;;;;;;;16.00;4.23;;;10.80;99.90;;;;;;4937715;29;20710;-59
2023/03/31 02:31:25;;;;;;;13.60;3.83;;;10.80;99.90;;;;;;4928996;29;20611;-59
2023/03/31 02:33:54;;;;;;;13.03;3.60;;;10.90;99.90;;;;;;4937354;29;20264;-57
2023/03/31 02:36:23;;;;;;;14.43;3.70;;;10.90;99.90;;;;;;4933046;29;20242;-59
2023/03/31 02:38:55;;;;;;;17.03;3.37;;;10.90;99.90;;;;;;4932579;29;20312;-59
2023/03/31 02:41:25;;;;;;;14.87;3.67;;;10.90;99.90;;;;;;4917066;29;20675;-59
2023/03/31 02:43:53;;;;;;;15.77;3.33;;;11.00;99.90;;;;;;4918305;29;20237;-59
2023/03/31 02:46:24;;;;;;;17.43;3.77;;;10.90;99.90;;;;;;4918316;29;20241;-57
2023/03/31 02:48:57;;;;;;;15.33;3.87;;;10.90;99.90;;;;;;4925191;29;20225;-59
2023/03/31 02:51:38;;;;;;;15.40;3.83;;;11.00;99.90;;;;;;4931527;29;20309;-58
2023/03/31 02:54:24;;;;;;;19.13;4.07;;;11.00;99.90;;;;;;4935507;29;20243;-57
2023/03/31 02:57:21;;;;;;;16.33;3.90;;;11.00;99.90;;;;;;4935755;29;20232;-59
2023/03/31 03:00:05;;;;;;;14.60;3.60;;;10.90;99.90;;;;;;4935669;29;20313;-59
2023/03/31 03:02:48;;;;;;;16.50;4.10;;;10.90;99.90;;;;;;4919840;29;20243;-59
2023/03/31 03:05:23;;;;;;;13.60;3.83;;;10.80;99.90;;;;;;4926700;29;20278;-59
2023/03/31 03:08:19;;;;;;;14.30;3.80;;;10.80;99.90;;;;;;4932730;29;20238;-59
2023/03/31 03:11:00;;;;;;;17.13;4.37;;;10.70;99.90;;;;;;4933330;29;20690;-59
2023/03/31 03:13:39;;;;;;;14.80;4.33;;;10.80;99.90;;;;;;4951261;29;20317;-59
2023/03/31 03:16:17;;;;;;;13.47;3.63;;;10.80;99.90;;;;;;4935161;29;20247;-59
2023/03/31 03:18:52;;;;;;;13.73;4.07;;;10.90;99.90;;;;;;4936709;29;20875;-59
2023/03/31 03:21:20;;;;;;;16.67;4.37;;;10.80;99.90;;;;;;4928284;29;20686;-60
2023/03/31 03:23:48;;;;;;;11.27;3.67;;;10.80;99.90;;;;;;4917949;29;20231;-59
2023/03/31 03:26:20;;;;;;;12.57;4.40;;;10.80;99.90;;;;;;4935182;29;20686;-59
2023/03/31 03:28:49;;;;;;;11.20;4.30;;;10.70;99.90;;;;;;4936162;29;20241;-59
2023/03/31 03:31:18;;;;;;;14.30;4.80;;;10.70;99.90;;;;;;4927075;29;20734;-59
2023/03/31 03:33:46;;;;;;;12.67;4.60;;;10.80;99.90;;;;;;4928498;29;20362;-59
2023/03/31 03:36:14;;;;;;;13.07;4.17;;;10.70;99.90;;;;;;4931737;29;20253;-59
2023/03/31 03:38:42;;;;;;;15.40;4.80;;;10.70;99.90;;;;;;4928195;29;20358;-59
2023/03/31 03:41:10;;;;;;;13.57;4.27;;;10.70;99.90;;;;;;4936477;29;20581;-58
2023/03/31 03:43:38;;;;;;;14.07;4.60;;;10.70;99.90;;;;;;4936314;29;20706;-59
2023/03/31 03:46:08;;;;;;;11.07;3.90;;;10.70;99.90;;;;;;4935889;29;20244;-59
2023/03/31 03:48:36;;;;;;;13.30;4.23;;;10.80;99.90;;;;;;4935838;29;20226;-59
2023/03/31 03:51:05;;;;;;;13.40;4.60;;;10.70;99.90;;;;;;4925156;29;20243;-59
2023/03/31 03:53:33;;;;;;;15.10;5.03;;;10.60;99.90;;;;;;4916872;29;20308;-59
2023/03/31 03:56:01;;;;;;;12.33;4.60;;;10.60;99.90;;;;;;4929143;29;20244;-59
2023/03/31 03:58:29;;;;;;;10.50;4.20;;;10.60;99.90;;;;;;4935671;29;20333;-59
2023/03/31 04:00:57;;;;;;;15.33;5.30;;;10.70;99.90;;;;;;4927669;29;20253;-59
2023/03/31 04:03:27;;;;;;;17.23;5.10;;;10.70;99.90;;;;;;4935736;29;20231;-59
2023/03/31 04:05:55;;;;;;;12.93;5.00;;;10.60;99.90;;;;;;4932072;29;20238;-59
2023/03/31 04:08:23;;;;;;;10.47;4.93;;;10.60;99.90;;;;;;4929608;29;20565;-60
2023/03/31 04:10:51;;;;;;;12.93;5.50;;;10.60;99.90;;;;;;4934229;29;20234;-59
2023/03/31 04:13:20;;;;;;;12.97;5.50;;;10.60;99.90;;;;;;4936004;29;20694;-59
2023/03/31 04:15:48;;;;;;;14.73;5.40;;;10.60;99.90;;;;;;4935190;29;20241;-59
2023/03/31 04:18:21;;;;;;;16.77;5.57;;;10.60;99.90;;;;;;4935669;29;20309;-59
2023/03/31 04:21:02;;;;;;;11.13;5.23;;;10.50;99.90;;;;;;4930017;29;20229;-59
2023/03/31 04:23:31;;;;;;;16.57;5.63;;;10.60;99.90;;;;;;4916684;29;20246;-59
2023/03/31 04:26:00;;;;;;;17.50;5.60;;;10.70;99.90;;;;;;4927890;29;20230;-59
2023/03/31 04:28:33;;;;;;;14.50;5.70;;;10.70;99.90;;;;;;4935318;29;20598;-59
2023/03/31 04:31:05;;;;;;;16.90;5.57;;;10.70;99.90;;;;;;4926892;29;20235;-59
2023/03/31 04:33:37;;;;;;;14.17;5.53;;;10.70;99.90;;;;;;4935582;29;20601;-59
2023/03/31 04:36:16;;;;;;;12.93;5.27;;;10.70;99.90;;;;;;4934179;29;20243;-59
2023/03/31 04:38:45;;;;;;;12.13;6.00;;;10.80;99.90;;;;;;4931891;29;20730;-59
2023/03/31 04:41:14;;;;;;;13.80;5.37;;;10.70;99.90;;;;;;4917077;29;20327;-58
2023/03/31 04:43:42;;;;;;;16.83;5.90;;;10.70;99.90;;;;;;4919461;29;20694;-59
2023/03/31 04:46:10;;;;;;;12.27;4.73;;;10.70;99.90;;;;;;4920424;29;20224;-59
2023/03/31 04:48:39;;;;;;;14.13;5.37;;;10.70;99.90;;;;;;4927300;29;20298;-58
2023/03/31 04:51:09;;;;;;;11.60;4.87;;;10.70;99.90;;;;;;4928220;29;20235;-59
2023/03/31 04:53:37;;;;;;;14.27;5.37;;;10.70;99.90;;;;;;4935235;29;20238;-59
2023/03/31 04:56:09;;;;;;;16.63;5.13;;;10.70;99.90;;;;;;4935933;29;20717;-59
2023/03/31 04:58:43;;;;;;;15.57;5.47;;;10.80;99.90;;;;;;4938899;29;20726;-59
2023/03/31 05:01:16;;;;;;;12.23;5.40;;;10.70;99.90;;;;;;4921060;29;20243;-58
2023/03/31 05:03:48;;;;;;;15.83;5.43;;;10.60;99.90;;;;;;4938901;29;20605;-59
2023/03/31 05:06:19;;;;;;;13.37;5.50;;;10.70;99.90;;;;;;4933418;29;20262;-59
2023/03/31 05:08:48;;;;;;;12.33;5.03;;;10.70;99.90;;;;;;4929449;29;20239;-59
2023/03/31 05:11:20;;;;;;;13.90;5.80;;;10.80;99.90;;;;;;4921243;29;20624;-59
2023/03/31 05:13:50;;;;;;;11.13;5.73;;;10.80;99.90;;;;;;4928177;29;20228;-59
2023/03/31 05:16:18;;;;;;;15.23;5.13;;;10.70;99.90;;;;;;4939052;29;20601;-59
2023/03/31 05:18:48;;;;;;;12.27;5.00;;;10.80;99.90;;;;;;4936958;29;20222;-59
2023/03/31 05:21:20;;;;;;;15.53;5.40;;;10.80;99.90;;;;;;4927562;29;20287;-59
2023/03/31 05:23:49;;;;;;;14.90;5.43;;;10.70;99.90;;;;;;4926618;29;20231;-59
2023/03/31 05:26:18;;;;;;;12.33;4.87;;;10.80;99.90;;;;;;4937437;29;20238;-59
2023/03/31 05:28:47;;;;;;;11.67;5.03;;;10.70;99.90;;;;;;4934784;29;20236;-60
2023/03/31 05:31:15;;;;;;;13.33;4.90;;;10.70;99.90;;;;;;4926828;29;20296;-59
2023/03/31 05:33:44;;;;;;;13.27;5.73;;;10.70;99.90;;;;;;4919321;29;20266;-59
2023/03/31 05:36:13;;;;;;;13.27;5.70;;;10.70;99.90;;;;;;4919694;29;20628;-59
2023/03/31 05:38:44;;;;;;;9.07;5.43;;;10.70;99.90;;;;;;4919778;29;20736;-59
2023/03/31 05:41:12;;;;;;;13.70;5.53;;;10.70;99.90;;;;;;4919682;29;20239;-57
2023/03/31 05:43:42;;;;;;;12.27;5.33;;;10.60;99.90;;;;;;4928823;29;20702;-59
2023/03/31 05:46:10;;;;;;;13.33;5.43;;;10.60;99.90;;;;;;4937850;29;20648;-58
2023/03/31 05:48:38;;;;;;;11.03;4.90;;;10.70;99.90;;;;;;4926246;29;20781;-59
2023/03/31 05:51:06;;;;;;;11.63;5.00;;;10.70;99.90;;;;;;4927013;29;20226;-59
2023/03/31 05:53:34;;;;;;;15.20;5.37;;;10.70;99.90;;;;;;4926130;29;20696;-59
2023/03/31 05:56:06;;;;;;;11.23;5.23;;;10.70;99.90;;;;;;4935614;29;20248;-59
2023/03/31 05:58:36;;;;;;;12.53;5.13;;;10.70;99.90;;;;;;4923710;29;20598;-59
2023/03/31 06:01:05;;;;;;;12.40;5.37;;;10.80;99.90;;;;;;4925132;29;20246;-59
2023/03/31 06:03:35;;;;;;;13.63;5.10;;;10.80;99.90;;;;;;4937905;29;20235;-59
2023/03/31 06:06:05;;;;;;;15.17;4.20;;;10.80;99.90;;;;;;4937385;29;20234;-59
2023/03/31 06:08:33;;;;;;;10.67;4.63;;;10.80;99.90;;;;;;4929094;29;20258;-59
2023/03/31 06:11:06;;;;;;;11.57;5.03;;;10.80;99.90;;;;;;4927539;29;20266;-59
2023/03/31 06:13:35;;;;;;;12.00;4.70;;;10.80;99.90;;;;;;4930599;29;20270;-59
2023/03/31 06:16:04;;;;;;;13.77;5.33;;;10.80;99.90;;;;;;4928614;29;20249;-59
2023/03/31 06:18:35;;;;;;;11.07;4.90;;;10.80;99.90;;;;;;4930496;29;20240;-59
2023/03/31 06:21:03;;;;;;;10.30;4.83;;;10.90;99.90;;;;;;4925642;29;20271;-59
2023/03/31 06:23:32;;;;;;;14.53;5.03;;;10.90;99.90;;;;;;4927079;29;20231;-59
2023/03/31 06:26:02;;;;;;;15.50;5.20;;;10.90;99.90;;;;;;4927055;29;20242;-59
2023/03/31 06:28:32;;;;;;;11.00;4.87;;;11.00;99.90;;;;;;4928451;29;20254;-58
2023/03/31 06:31:02;;;;;;;14.63;5.20;;;11.00;99.90;;;;;;4927780;29;20236;-59
2023/03/31 06:33:31;;;;;;;11.63;5.27;;;11.00;99.90;;;;;;4918563;29;20234;-59
2023/03/31 06:36:00;;;;;;;14.70;5.43;;;11.10;99.90;;;;;;4918718;29;20319;-59
2023/03/31 06:38:28;;;;;;;14.90;6.10;;;11.10;99.90;;;;;;4936312;29;20235;-59
2023/03/31 06:40:56;;;;;;;14.60;6.33;;;11.20;99.90;;;;;;4937387;29;20263;-59
2023/03/31 06:43:24;;;;;;;12.20;5.90;;;11.20;99.90;;;;;;4937331;29;20230;-59
2023/03/31 06:45:54;;;;;;;15.47;6.87;;;11.20;99.90;;;;;;4922941;29;20231;-59
2023/03/31 06:48:23;;;;;;;12.03;6.53;;;11.30;99.90;;;;;;4922556;29;20243;-59
2023/03/31 06:50:53;;;;;;;15.07;6.70;;;11.30;99.90;;;;;;4928081;29;20698;-61
2023/03/31 06:53:22;;;;;;;11.33;6.30;;;11.30;99.90;;;;;;4936827;29;20231;-61
2023/03/31 06:55:50;;;;;;;14.07;8.03;;;11.30;99.90;;;;;;4937243;29;20697;-61
2023/03/31 06:58:18;;;;;;;14.57;7.37;;;11.30;99.90;;;;;;4936916;29;20305;-60
2023/03/31 07:00:46;;;;;;;12.87;7.63;;;11.30;99.90;;;;;;4928402;29;20252;-61
2023/03/31 07:03:17;;;;;;;15.63;7.20;;;11.30;99.90;;;;;;4937187;29;20716;-61
2023/03/31 07:05:48;;;;;;;17.43;8.23;;;11.20;99.90;;;;;;4936068;29;20230;-61
2023/03/31 07:08:17;;;;;;;15.23;7.87;;;11.10;99.90;;;;;;4928048;29;20710;-60
2023/03/31 07:10:47;;;;;;;14.63;7.30;;;11.00;99.90;;;;;;4927438;29;20230;-60
2023/03/31 07:13:16;;;;;;;13.53;7.90;;;11.00;99.90;;;;;;4920581;29;20714;-60
2023/03/31 07:15:47;;;;;;;15.60;7.77;;;10.90;99.90;;;;;;4917804;29;20248;-61
2023/03/31 07:18:17;;;;;;;16.73;8.27;;;10.90;99.90;;;;;;4921621;29;20285;-61
2023/03/31 07:20:48;;;;;;;15.10;8.20;;;10.90;99.90;;;;;;4926650;29;20230;-61
2023/03/31 07:23:17;;;;;;;12.27;8.23;;;10.80;99.90;;;;;;4936318;29;20266;-61
2023/03/31 07:25:46;;;;;;;16.97;9.00;;;10.90;99.90;;;;;;4935104;29;20234;-61
2023/03/31 07:28:15;;;;;;;13.40;8.90;;;10.80;99.90;;;;;;4936460;29;20227;-61
2023/03/31 07:30:43;;;;;;;13.63;8.47;;;10.90;99.90;;;;;;4926871;29;20294;-60
2023/03/31 07:33:11;;;;;;;12.53;8.63;;;10.90;99.90;;;;;;4922574;29;20235;-60
2023/03/31 07:35:41;;;;;;;16.63;8.97;;;10.90;99.90;;;;;;4917392;29;20232;-60
2023/03/31 07:38:10;;;;;;;14.17;8.90;;;10.90;99.90;;;;;;4925668;29;20247;-60
2023/03/31 07:40:39;;;;;;;15.37;9.03;;;10.90;99.90;;;;;;4933628;29;20325;-61
2023/03/31 07:43:07;;;;;;;13.17;8.63;;;10.90;99.90;;;;;;4935953;29;20637;-60
2023/03/31 07:45:35;;;;;;;12.30;8.63;;;10.90;99.90;;;;;;4936165;29;20250;-61
2023/03/31 07:48:04;;;;;;;13.73;8.33;;;10.80;99.90;;;;;;4935796;29;20242;-61
2023/03/31 07:50:32;;;;;;;11.73;7.67;;;10.80;99.90;;;;;;4927437;29;20581;-61
2023/03/31 07:53:03;;;;;;;12.90;9.03;;;10.80;99.90;;;;;;4926591;29;20759;-61
2023/03/31 07:55:31;;;;;;;16.77;9.57;;;10.70;99.90;;;;;;4935800;29;20234;-61
2023/03/31 07:57:59;;;;;;;16.50;9.53;;;10.70;99.90;;;;;;4933357;29;20251;-61
2023/03/31 08:00:28;;;;;;;11.83;9.10;;;10.70;99.90;;;;;;4926133;29;20241;-61
2023/03/31 08:02:56;;;;;;;17.67;9.23;;;10.70;99.90;;;;;;4935941;29;20233;-61
2023/03/31 08:05:24;;;;;;;13.23;8.40;;;10.70;99.90;;;;;;4935819;29;20317;-60
2023/03/31 08:07:52;;;;;;;14.00;8.20;;;10.70;99.90;;;;;;4935817;29;20231;-61
2023/03/31 08:10:23;;;;;;;12.07;7.90;;;10.70;99.90;;;;;;4935768;29;20235;-61
2023/03/31 08:12:52;;;;;;;13.33;8.20;;;10.80;99.90;;;;;;4935995;29;20238;-61
2023/03/31 08:15:20;;;;;;;12.07;8.00;;;10.80;99.90;;;;;;4935635;29;20588;-61
2023/03/31 08:17:48;;;;;;;13.87;8.10;;;10.80;99.90;;;;;;4927134;29;20227;-62
2023/03/31 08:20:16;;;;;;;12.20;6.97;;;10.80;99.90;;;;;;4925862;29;20644;-61
2023/03/31 08:22:44;;;;;;;11.07;7.93;;;10.70;99.90;;;;;;4926495;29;20242;-61
2023/03/31 08:25:12;;;;;;;10.40;6.97;;;10.80;99.90;;;;;;4916905;29;20236;-61
2023/03/31 08:27:42;;;;;;;10.67;6.37;;;10.80;99.90;;;;;;4933815;29;20257;-61
2023/03/31 08:30:12;;;;;;;12.47;7.40;;;10.80;99.90;;;;;;4926425;29;20584;-62
2023/03/31 08:32:40;;;;;;;9.73;6.90;;;10.80;99.90;;;;;;4932391;29;20249;-61
2023/03/31 08:35:08;;;;;;;11.63;7.20;;;10.90;99.90;;;;;;4935744;29;20231;-61
2023/03/31 08:37:37;;;;;;;12.17;6.77;;;10.90;99.90;;;;;;4935459;29;20753;-61
2023/03/31 08:40:08;;;;;;;10.27;7.13;;;10.90;99.90;;;;;;4935374;29;20239;-61
2023/03/31 08:42:39;;;;;;;9.83;6.83;;;10.90;99.90;;;;;;4934960;29;20238;-61
2023/03/31 08:45:17;;;;;;;9.50;6.53;;;10.90;99.90;;;;;;4935330;29;20689;-61
2023/03/31 08:47:48;;;;;;;9.87;6.60;;;10.90;99.90;;;;;;4935142;29;20238;-61
2023/03/31 08:50:20;;;;;;;9.70;6.30;;;10.90;99.90;;;;;;4930554;29;20703;-61
2023/03/31 08:52:54;;;;;;;9.03;6.37;;;10.90;99.90;;;;;;4925027;29;20240;-61
2023/03/31 08:55:31;;;;;;;7.63;6.40;;;10.90;99.90;;;;;;4932576;29;20227;-61
2023/03/31 08:58:06;;;;;;;8.80;6.03;;;11.00;99.90;;;;;;4924041;29;20235;-61
2023/03/31 09:00:41;;;;;;;9.77;6.83;;;11.00;99.90;;;;;;4931038;29;20738;-61
2023/03/31 09:03:18;;;;;;;8.93;6.27;;;11.00;99.90;;;;;;4916398;29;20717;-61
2023/03/31 09:05:58;;;;;;;9.20;5.87;;;11.10;99.90;;;;;;4923983;29;20325;-61
2023/03/31 09:08:42;;;;;;;7.53;6.00;;;11.20;99.90;;;;;;4927777;29;20231;-61
2023/03/31 09:11:27;;;;;;;9.10;6.23;;;11.20;99.90;;;;;;4924752;29;20240;-61
2023/03/31 09:14:13;;;;;;;9.23;6.10;;;11.30;99.90;;;;;;4925550;29;20227;-61
2023/03/31 09:16:49;;;;;;;7.40;6.30;;;11.30;99.90;;;;;;4925672;29;20236;-61
2023/03/31 09:19:24;;;;;;;10.80;6.90;;;11.30;99.90;;;;;;4923919;29;20765;-61
2023/03/31 09:21:55;;;;;;;8.67;6.20;;;11.30;99.90;;;;;;4926171;29;20678;-61
2023/03/31 09:24:28;;;;;;;9.23;6.17;;;11.40;99.90;;;;;;4924770;29;20726;-61
2023/03/31 09:27:01;;;;;;;7.20;5.30;;;11.40;99.90;;;;;;4927119;29;20598;-61
2023/03/31 09:29:42;;;;;;;6.00;4.93;;;11.40;99.90;;;;;;4923643;29;20240;-61
2023/03/31 09:32:16;;;;;;;7.97;5.13;;;11.50;99.90;;;;;;4928059;29;20239;-61
2023/03/31 09:34:46;;;;;;;9.83;5.87;;;11.50;99.90;;;;;;4928287;29;20723;-61
2023/03/31 09:37:14;;;;;;;6.13;5.30;;;11.50;99.90;;;;;;4924507;29;20222;-61
2023/03/31 09:39:42;;;;;;;7.60;6.37;;;11.50;99.90;;;;;;4919307;29;20326;-61
2023/03/31 09:42:13;;;;;;;9.10;6.20;;;11.60;99.90;;;;;;4919458;29;20623;-61
2023/03/31 09:44:44;;;;;;;8.17;6.17;;;11.70;99.90;;;;;;4924952;29;20321;-61
2023/03/31 09:47:19;;;;;;;8.53;6.07;;;11.80;99.90;;;;;;4924124;29;20230;-61
2023/03/31 09:49:47;;;;;;;8.07;5.43;;;11.80;99.90;;;;;;4927090;29;20232;-61
2023/03/31 09:52:28;;;;;;;8.90;5.70;;;11.90;99.90;;;;;;4924544;29;20290;-61
2023/03/31 09:55:00;;;;;;;7.37;5.60;;;11.90;99.90;;;;;;4924990;29;20318;-61
2023/03/31 09:57:30;;;;;;;6.40;5.20;;;11.90;99.90;;;;;;4920347;29;20711;-61
2023/03/31 10:00:06;;;;;;;6.13;4.93;;;11.80;99.90;;;;;;4929922;29;20686;-61
2023/03/31 10:02:44;;;;;;;7.07;5.60;;;11.80;99.90;;;;;;4925567;29;20609;-61
2023/03/31 10:05:25;;;;;;;7.10;5.40;;;11.90;99.90;;;;;;4919380;29;20689;-61
2023/03/31 10:08:10;;;;;;;5.53;5.03;;;11.90;99.90;;;;;;4918939;29;20286;-61
2023/03/31 10:10:43;;;;;;;5.43;4.80;;;11.90;99.90;;;;;;4924921;29;20235;-59
2023/03/31 10:13:16;;;;;;;7.33;4.37;;;11.90;99.90;;;;;;4926126;29;20235;-59
2023/03/31 10:15:44;;;;;;;7.47;5.00;;;11.90;99.90;;;;;;4927812;29;20243;-59
2023/03/31 10:18:16;;;;;;;5.47;4.63;;;11.90;99.90;;;;;;4929378;29;20782;-59
2023/03/31 10:20:49;;;;;;;6.57;4.67;;;11.90;99.90;;;;;;4929775;29;20385;-60
2023/03/31 10:23:29;;;;;;;6.63;4.63;;;11.80;99.90;;;;;;4928029;29;20238;-60
2023/03/31 10:25:58;;;;;;;5.47;4.43;;;11.80;99.90;;;;;;4929977;29;20678;-59
2023/03/31 10:28:31;;;;;;;5.33;4.70;;;11.80;99.90;;;;;;4928293;29;20269;-60
2023/03/31 10:31:01;;;;;;;5.10;4.37;;;11.80;99.90;;;;;;4913925;29;20336;-60
2023/03/31 10:33:33;;;;;;;6.70;4.60;;;11.80;99.90;;;;;;4913264;29;20777;-61
2023/03/31 10:36:07;;;;;;;5.20;4.70;;;11.80;99.90;;;;;;4914896;29;20680;-60
2023/03/31 10:38:39;;;;;;;5.43;4.30;;;11.70;99.90;;;;;;4912112;29;20338;-60
2023/03/31 10:41:08;;;;;;;5.40;4.20;;;11.70;99.90;;;;;;4912181;29;20223;-60
2023/03/31 10:43:40;;;;;;;7.90;4.80;;;11.80;99.90;;;;;;4912695;29;20783;-60
2023/03/31 10:46:08;;;;;;;6.03;5.20;;;11.70;99.90;;;;;;4912013;29;20752;-60
2023/03/31 10:48:41;;;;;;;6.00;4.50;;;11.80;99.90;;;;;;4912314;29;20231;-60
2023/03/31 10:51:15;;;;;;;5.67;4.77;;;11.80;99.90;;;;;;4915008;29;20618;-60
2023/03/31 10:53:45;;;;;;;6.23;4.83;;;11.90;99.90;;;;;;4912936;29;20242;-60
2023/03/31 10:56:33;;;;;;;5.47;4.23;;;11.90;99.90;;;;;;4911997;29;20239;-60
2023/03/31 10:59:14;;;;;;;6.67;4.70;;;11.90;99.90;;;;;;4911165;29;20243;-60
2023/03/31 11:01:58;;;;;;;6.00;4.40;;;11.90;99.90;;;;;;4914753;29;20250;-60
2023/03/31 11:04:47;;;;;;;7.07;4.43;;;11.90;99.90;;;;;;4914319;29;20278;-59
2023/03/31 11:07:29;;;;;;;6.80;4.47;;;11.80;99.90;;;;;;4915696;29;20242;-60
2023/03/31 11:10:10;;;;;;;7.40;4.40;;;11.70;99.90;;;;;;4912719;29;20243;-59
2023/03/31 11:12:43;;;;;;;6.17;4.20;;;11.80;99.90;;;;;;4913707;29;20240;-60
2023/03/31 11:15:21;;;;;;;5.33;3.30;;;11.70;99.90;;;;;;4912064;29;20229;-60
2023/03/31 11:18:01;;;;;;;4.30;3.17;;;11.70;99.90;;;;;;4912025;29;20234;-60
2023/03/31 11:20:37;;;;;;;6.37;3.80;;;11.60;99.90;;;;;;4913143;29;20240;-60
2023/03/31 11:23:14;;;;;;;7.07;3.30;;;11.50;99.90;;;;;;4915002;29;20952;-60
2023/03/31 11:25:51;;;;;;;4.67;2.73;;;11.50;99.90;;;;;;4914093;29;20730;-60
2023/03/31 11:28:40;;;;;;;3.93;2.30;;;11.50;99.90;;;;;;4909861;29;20981;-60
2023/03/31 11:31:23;;;;;;;2.30;2.07;;;11.40;99.90;;;;;;4912063;29;20243;-60
2023/03/31 11:34:08;;;;;;;3.57;2.30;;;11.40;99.90;;;;;;4912268;29;20623;-60
2023/03/31 11:37:06;;;;;;;3.53;2.10;;;11.40;99.90;;;;;;4912339;29;20231;-60
2023/03/31 11:39:45;;;;;;;2.53;1.80;;;11.50;99.90;;;;;;4910837;29;20248;-59
2023/03/31 11:42:18;;;;;;;1.80;1.30;;;11.40;99.90;;;;;;4913512;29;20754;-60
2023/03/31 11:44:51;;;;;;;4.03;1.83;;;11.40;99.90;;;;;;4912654;29;20293;-60
2023/03/31 11:47:24;;;;;;;3.80;1.93;;;11.40;99.90;;;;;;4913313;29;20239;-59
2023/03/31 11:49:57;;;;;;;2.83;1.67;;;11.50;99.90;;;;;;4911591;29;20278;-60
2023/03/31 11:52:29;;;;;;;2.20;1.30;;;11.50;99.90;;;;;;4912300;29;20243;-60
2023/03/31 11:55:01;;;;;;;3.90;1.63;;;11.50;99.90;;;;;;4911942;29;20779;-61
2023/03/31 11:57:33;;;;;;;3.20;2.13;;;11.50;99.90;;;;;;4912135;29;20240;-59
2023/03/31 12:00:11;;;;;;;2.43;1.70;;;11.50;99.90;;;;;;4912420;29;20243;-60
2023/03/31 12:02:46;;;;;;;3.73;1.80;;;11.50;99.90;;;;;;4912903;29;20257;-59
2023/03/31 12:05:17;;;;;;;3.50;1.93;;;11.50;99.90;;;;;;4912196;29;20723;-60
2023/03/31 12:07:52;;;;;;;3.33;2.20;;;11.50;99.90;;;;;;4911837;29;20242;-59
2023/03/31 12:10:22;;;;;;;6.73;3.63;;;11.40;99.90;;;;;;4912753;29;20244;-60
2023/03/31 12:12:55;;;;;;;3.53;2.80;;;11.40;99.90;;;;;;4911106;29;20246;-59
2023/03/31 12:15:27;;;;;;;6.00;2.63;;;11.40;99.90;;;;;;4911081;29;20254;-59
2023/03/31 12:18:00;;;;;;;6.67;2.90;;;11.40;99.90;;;;;;4909591;29;20242;-61
2023/03/31 12:20:36;;;;;;;4.00;2.83;;;11.40;99.90;;;;;;4910859;29;20238;-62
2023/03/31 12:23:12;;;;;;;5.87;4.00;;;11.40;99.90;;;;;;4912404;29;20321;-62
2023/03/31 12:25:49;;;;;;;7.87;3.43;;;11.50;99.90;;;;;;4913665;29;20310;-61
2023/03/31 12:28:19;;;;;;;5.20;3.50;;;11.40;99.90;;;;;;4910977;29;20259;-61
2023/03/31 12:30:48;;;;;;;6.70;3.63;;;11.40;99.90;;;;;;4912036;29;20246;-62
2023/03/31 12:33:22;;;;;;;5.27;3.23;;;11.40;99.90;;;;;;4913707;29;20227;-61
2023/03/31 12:36:11;;;;;;;7.00;3.90;;;11.50;99.90;;;;;;4912733;29;20238;-61
2023/03/31 12:38:50;;;;;;;6.60;3.67;;;11.40;99.90;;;;;;4910809;29;20229;-61
2023/03/31 12:41:25;;;;;;;6.57;3.60;;;11.60;99.90;;;;;;4913554;29;20253;-62
2023/03/31 12:44:22;;;;;;;8.40;3.80;;;11.60;99.90;;;;;;4913330;29;20249;-61
2023/03/31 12:47:32;;;;;;;6.17;3.50;;;11.80;99.90;;;;;;4911680;29;20237;-62
2023/03/31 12:50:17;;;;;;;5.73;4.00;;;11.90;99.90;;;;;;4858535;29;20288;-62
2023/03/31 12:52:53;;;;;;;6.23;4.00;;;11.90;99.90;;;;;;4910559;29;20239;-62
2023/03/31 12:55:36;;;;;;;7.60;4.00;;;11.90;99.90;;;;;;4912458;29;20242;-61
2023/03/31 12:58:43;;;;;;;7.53;4.07;;;12.00;99.90;;;;;;4909004;29;20726;-62
2023/03/31 13:01:17;;;;;;;4.67;3.90;;;12.10;99.90;;;;;;4910820;29;20258;-62
2023/03/31 13:04:09;;;;;;;9.43;4.23;;;12.20;99.90;;;;;;4910589;29;20230;-61
2023/03/31 13:06:52;;;;;;;7.07;4.50;;;12.10;99.90;;;;;;4916120;29;20301;-62
2023/03/31 13:09:40;;;;;;;6.73;4.07;;;12.10;99.90;;;;;;4914382;29;20626;-61
2023/03/31 13:12:15;;;;;;;5.63;4.33;;;12.20;99.90;;;;;;4917294;29;20264;-61